Time;durP1;ratioP1;P1;durP2;ratioP2;P2;SDS_P1;SDS_P2;PMS_P1;PMS_P2;Temp;Humidity;BMP_temperature;BMP_pressure;BME280_temperature;BME280_humidity;BME280_pressure;Samples;Min_cycle;Max_cycle;Signal;HPM_P1;HPM_P2
2023/05/17 00:01:08;;;;;;;21.80;13.80;;;;;;;-128.00;-1.00;-1.00;18471;338;7504649;-35
2023/05/17 00:03:34;;;;;;;14.00;8.70;;;;;;;-128.00;-1.00;-1.00;18877;321;7506171;-38
2023/05/17 00:06:00;;;;;;;20.30;12.10;;;;;;;-128.00;-1.00;-1.00;18466;297;7506963;-34
2023/05/17 00:08:26;;;;;;;22.90;14.40;;;;;;;-128.00;-1.00;-1.00;18852;297;7504747;-38
2023/05/17 00:10:52;;;;;;;27.00;14.50;;;;;;;-128.00;-1.00;-1.00;18862;338;7504413;-37
2023/05/17 00:13:18;;;;;;;25.40;13.80;;;;;;;-128.00;-1.00;-1.00;18871;349;7505052;-38
2023/05/17 00:15:45;;;;;;;23.60;13.80;;;;;;;-128.00;-1.00;-1.00;18851;334;7504600;-38
2023/05/17 00:18:11;;;;;;;20.00;11.80;;;;;;;-128.00;-1.00;-1.00;18882;297;7505505;-37
2023/05/17 00:20:37;;;;;;;23.80;13.60;;;;;;;-128.00;-1.00;-1.00;18893;297;7505376;-38
2023/05/17 00:23:04;;;;;;;22.30;11.30;;;;;;;-128.00;-1.00;-1.00;18867;350;7507830;-37
2023/05/17 00:25:30;;;;;;;22.30;13.40;;;;;;;-128.00;-1.00;-1.00;18879;342;7504553;-39
2023/05/17 00:27:56;;;;;;;22.90;12.80;;;;;;;-128.00;-1.00;-1.00;18865;298;7504456;-37
2023/05/17 00:30:22;;;;;;;24.40;13.50;;;;;;;-128.00;-1.00;-1.00;18882;297;7505348;-37
2023/05/17 00:32:49;;;;;;;23.40;15.10;;;;;;;-128.00;-1.00;-1.00;18853;298;7505222;-36
2023/05/17 00:35:15;;;;;;;23.30;12.70;;;;;;;-128.00;-1.00;-1.00;18856;297;7504371;-34
2023/05/17 00:37:46;;;;;;;21.10;14.20;;;;;;;-128.00;-1.00;-1.00;18850;298;7504520;-34
2023/05/17 00:40:15;;;;;;;18.20;12.00;;;;;;;-128.00;-1.00;-1.00;18472;297;7504653;-33
2023/05/17 00:46:22;;;;;;;17.50;11.30;;;;;;;-128.00;-1.00;-1.00;18464;297;7506249;-37
2023/05/17 00:48:47;;;;;;;19.50;12.20;;;;;;;-128.00;-1.00;-1.00;18472;297;7504492;-39
2023/05/17 00:51:15;;;;;;;19.20;12.20;;;;;;;-128.00;-1.00;-1.00;18902;297;7504294;-37
2023/05/17 00:53:40;;;;;;;19.60;11.10;;;;;;;-128.00;-1.00;-1.00;18433;299;7504846;-37
2023/05/17 00:56:06;;;;;;;18.70;10.00;;;;;;;-128.00;-1.00;-1.00;18458;299;7504158;-37
2023/05/17 00:58:32;;;;;;;15.90;9.40;;;;;;;-128.00;-1.00;-1.00;18458;297;7504820;-38
2023/05/17 01:00:58;;;;;;;15.90;10.90;;;;;;;-128.00;-1.00;-1.00;18469;341;7504323;-37
2023/05/17 01:03:24;;;;;;;11.90;9.40;;;;;;;-128.00;-1.00;-1.00;18465;297;7504761;-34
2023/05/17 01:05:50;;;;;;;15.60;9.90;;;;;;;-128.00;-1.00;-1.00;18474;297;7504968;-37
2023/05/17 01:08:16;;;;;;;15.00;8.80;;;;;;;-128.00;-1.00;-1.00;18470;297;7505787;-35
2023/05/17 01:11:06;;;;;;;18.40;10.10;;;;;;;-128.00;-1.00;-1.00;18884;297;7504668;-38
2023/05/17 01:13:56;;;;;;;11.60;9.00;;;;;;;-128.00;-1.00;-1.00;18470;297;7504421;-34
2023/05/17 01:16:24;;;;;;;11.80;7.90;;;;;;;-128.00;-1.00;-1.00;18434;299;7506439;-34
2023/05/17 01:18:56;;;;;;;11.90;8.10;;;;;;;-128.00;-1.00;-1.00;18485;297;7504264;-34
2023/05/17 01:21:42;;;;;;;6.80;5.90;;;;;;;-128.00;-1.00;-1.00;18466;297;7506990;-37
2023/05/17 01:24:22;;;;;;;20.40;9.80;;;;;;;-128.00;-1.00;-1.00;18439;297;7505326;-37
2023/05/17 01:26:48;;;;;;;10.80;6.80;;;;;;;-128.00;-1.00;-1.00;18467;297;7504979;-33
2023/05/17 01:29:14;;;;;;;14.80;9.30;;;;;;;-128.00;-1.00;-1.00;18465;297;7505500;-34
2023/05/17 01:31:40;;;;;;;13.50;7.50;;;;;;;-128.00;-1.00;-1.00;18459;297;7504799;-35
2023/05/17 01:34:07;;;;;;;15.90;8.90;;;;;;;-128.00;-1.00;-1.00;18892;297;7504651;-35
2023/05/17 01:36:33;;;;;;;10.90;8.10;;;;;;;-128.00;-1.00;-1.00;18481;297;7506419;-37
2023/05/17 01:43:09;;;;;;;14.90;9.40;;;;;;;-128.00;-1.00;-1.00;18456;297;7505225;-34
2023/05/17 01:45:40;;;;;;;10.50;7.50;;;;;;;-128.00;-1.00;-1.00;18482;341;7504121;-38
2023/05/17 01:48:17;;;;;;;14.60;8.90;;;;;;;-128.00;-1.00;-1.00;18470;297;7504751;-38
2023/05/17 01:50:43;;;;;;;8.80;7.30;;;;;;;-128.00;-1.00;-1.00;18440;299;7504667;-38
2023/05/17 01:53:25;;;;;;;16.00;8.70;;;;;;;-128.00;-1.00;-1.00;18858;297;7505177;-35
2023/05/17 01:55:52;;;;;;;11.80;6.60;;;;;;;-128.00;-1.00;-1.00;18483;297;7506054;-35
2023/05/17 01:58:20;;;;;;;23.70;9.10;;;;;;;-128.00;-1.00;-1.00;18468;349;7505935;-37
2023/05/17 02:00:46;;;;;;;9.10;7.10;;;;;;;-128.00;-1.00;-1.00;18460;297;7505691;-34
2023/05/17 02:03:16;;;;;;;18.70;8.50;;;;;;;-128.00;-1.00;-1.00;18471;297;7506056;-37
2023/05/17 02:05:41;;;;;;;10.30;6.60;;;;;;;-128.00;-1.00;-1.00;18502;297;7505875;-34
2023/05/17 02:08:07;;;;;;;16.70;8.30;;;;;;;-128.00;-1.00;-1.00;18472;298;7504996;-38
2023/05/17 02:10:33;;;;;;;15.90;10.00;;;;;;;-128.00;-1.00;-1.00;18859;297;7505039;-34
2023/05/17 02:12:59;;;;;;;13.90;8.50;;;;;;;-128.00;-1.00;-1.00;18867;297;7504258;-37
2023/05/17 02:15:26;;;;;;;11.90;8.10;;;;;;;-128.00;-1.00;-1.00;18866;297;7504536;-37
2023/05/17 02:17:52;;;;;;;9.90;7.50;;;;;;;-128.00;-1.00;-1.00;18844;297;7504781;-37
2023/05/17 02:20:18;;;;;;;14.90;8.60;;;;;;;-128.00;-1.00;-1.00;18866;297;7505346;-36
2023/05/17 02:22:44;;;;;;;18.00;7.30;;;;;;;-128.00;-1.00;-1.00;18869;297;7507502;-34
2023/05/17 02:25:10;;;;;;;9.20;2.60;;;;;;;-128.00;-1.00;-1.00;18465;297;7505056;-36
2023/05/17 02:27:36;;;;;;;9.80;6.70;;;;;;;-128.00;-1.00;-1.00;18854;320;7504491;-38
2023/05/17 02:30:03;;;;;;;13.40;7.20;;;;;;;-128.00;-1.00;-1.00;18863;297;7506518;-38
2023/05/17 02:32:30;;;;;;;18.30;8.50;;;;;;;-128.00;-1.00;-1.00;18471;297;7504646;-35
2023/05/17 02:34:55;;;;;;;10.10;5.90;;;;;;;-128.00;-1.00;-1.00;18470;297;7505262;-38
2023/05/17 02:37:21;;;;;;;10.60;7.50;;;;;;;-128.00;-1.00;-1.00;18866;297;7504858;-35
2023/05/17 02:39:48;;;;;;;10.40;6.30;;;;;;;-128.00;-1.00;-1.00;18872;297;7505085;-38
2023/05/17 02:42:14;;;;;;;12.10;7.30;;;;;;;-128.00;-1.00;-1.00;18876;297;7505081;-34
2023/05/17 02:44:40;;;;;;;14.50;8.80;;;;;;;-128.00;-1.00;-1.00;18863;297;7504962;-37
2023/05/17 02:47:06;;;;;;;10.70;7.60;;;;;;;-128.00;-1.00;-1.00;18864;297;7504593;-34
2023/05/17 02:49:32;;;;;;;12.20;8.40;;;;;;;-128.00;-1.00;-1.00;18856;312;7504710;-37
2023/05/17 02:51:59;;;;;;;15.60;9.00;;;;;;;-128.00;-1.00;-1.00;18858;297;7504333;-34
2023/05/17 02:54:25;;;;;;;12.20;8.20;;;;;;;-128.00;-1.00;-1.00;18492;297;7504328;-38
2023/05/17 02:56:51;;;;;;;21.20;8.70;;;;;;;-128.00;-1.00;-1.00;18486;297;7504930;-38
2023/05/17 02:59:17;;;;;;;11.50;7.60;;;;;;;-128.00;-1.00;-1.00;18846;314;7504413;-36
2023/05/17 03:01:43;;;;;;;13.80;8.10;;;;;;;-128.00;-1.00;-1.00;18456;289;7505183;-39
2023/05/17 03:04:09;;;;;;;13.60;7.60;;;;;;;-128.00;-1.00;-1.00;18470;341;7505122;-34
2023/05/17 03:06:34;;;;;;;11.80;7.10;;;;;;;-128.00;-1.00;-1.00;18470;297;7504295;-34
2023/05/17 03:09:00;;;;;;;13.50;7.10;;;;;;;-128.00;-1.00;-1.00;18852;297;7504868;-38
2023/05/17 03:11:27;;;;;;;20.10;9.70;;;;;;;-128.00;-1.00;-1.00;18854;297;7504321;-38
2023/05/17 03:13:53;;;;;;;16.10;8.80;;;;;;;-128.00;-1.00;-1.00;18888;297;7507296;-38
2023/05/17 03:16:19;;;;;;;16.00;7.90;;;;;;;-128.00;-1.00;-1.00;18847;349;7505039;-35
2023/05/17 03:18:45;;;;;;;11.30;8.20;;;;;;;-128.00;-1.00;-1.00;18868;297;7505193;-35
2023/05/17 03:21:11;;;;;;;14.20;9.00;;;;;;;-128.00;-1.00;-1.00;18876;297;7505268;-35
2023/05/17 03:23:38;;;;;;;13.70;7.30;;;;;;;-128.00;-1.00;-1.00;18887;297;7504476;-38
2023/05/17 03:26:04;;;;;;;14.80;7.90;;;;;;;-128.00;-1.00;-1.00;18853;297;7505586;-38
2023/05/17 03:28:30;;;;;;;15.00;9.10;;;;;;;-128.00;-1.00;-1.00;18851;299;7504306;-38
2023/05/17 03:30:56;;;;;;;13.90;8.10;;;;;;;-128.00;-1.00;-1.00;18895;294;7504845;-35
2023/05/17 03:33:22;;;;;;;19.40;9.60;;;;;;;-128.00;-1.00;-1.00;18850;349;7504806;-33
2023/05/17 03:35:48;;;;;;;13.80;8.70;;;;;;;-128.00;-1.00;-1.00;18851;297;7505079;-38
2023/05/17 03:38:14;;;;;;;18.80;9.80;;;;;;;-128.00;-1.00;-1.00;18849;297;7504351;-38
2023/05/17 03:40:40;;;;;;;18.00;8.50;;;;;;;-128.00;-1.00;-1.00;18850;287;7504805;-37
2023/05/17 03:43:06;;;;;;;27.20;10.70;;;;;;;-128.00;-1.00;-1.00;18874;303;7504985;-35
2023/05/17 03:45:33;;;;;;;17.30;12.00;;;;;;;-128.00;-1.00;-1.00;18871;297;7504303;-35
2023/05/17 03:47:59;;;;;;;19.00;11.20;;;;;;;-128.00;-1.00;-1.00;18870;334;7504302;-38
2023/05/17 03:50:25;;;;;;;16.30;8.60;;;;;;;-128.00;-1.00;-1.00;18847;299;7505050;-38
2023/05/17 03:52:51;;;;;;;26.60;12.00;;;;;;;-128.00;-1.00;-1.00;18853;297;7504988;-35
2023/05/17 03:55:17;;;;;;;20.10;12.00;;;;;;;-128.00;-1.00;-1.00;18872;297;7504185;-37
2023/05/17 03:57:44;;;;;;;19.70;11.70;;;;;;;-128.00;-1.00;-1.00;18886;297;7505204;-38
2023/05/17 04:00:11;;;;;;;23.00;13.10;;;;;;;-128.00;-1.00;-1.00;18883;316;7504249;-35
2023/05/17 04:02:37;;;;;;;20.50;12.30;;;;;;;-128.00;-1.00;-1.00;18460;297;7506075;-34
2023/05/17 04:05:03;;;;;;;24.40;12.60;;;;;;;-128.00;-1.00;-1.00;18478;297;7505789;-34
2023/05/17 04:07:29;;;;;;;17.40;9.30;;;;;;;-128.00;-1.00;-1.00;18470;297;7504931;-33
2023/05/17 04:09:58;;;;;;;14.60;7.90;;;;;;;-128.00;-1.00;-1.00;18445;349;7505189;-37
2023/05/17 04:12:24;;;;;;;21.50;13.20;;;;;;;-128.00;-1.00;-1.00;18467;301;7505162;-37
2023/05/17 04:14:49;;;;;;;21.70;12.00;;;;;;;-128.00;-1.00;-1.00;18470;297;7504850;-34
2023/05/17 04:17:16;;;;;;;22.60;13.30;;;;;;;-128.00;-1.00;-1.00;18870;297;7506136;-34
2023/05/17 04:19:42;;;;;;;20.10;11.50;;;;;;;-128.00;-1.00;-1.00;18459;298;7504400;-38
2023/05/17 04:22:08;;;;;;;25.50;12.20;;;;;;;-128.00;-1.00;-1.00;18859;297;7505411;-38
2023/05/17 04:24:34;;;;;;;20.80;12.40;;;;;;;-128.00;-1.00;-1.00;18881;297;7505068;-38
2023/05/17 04:27:00;;;;;;;22.50;14.40;;;;;;;-128.00;-1.00;-1.00;18850;297;7504456;-38
2023/05/17 04:29:26;;;;;;;23.90;15.00;;;;;;;-128.00;-1.00;-1.00;18841;297;7504516;-38
2023/05/17 04:31:52;;;;;;;24.40;12.10;;;;;;;-128.00;-1.00;-1.00;18836;297;7507298;-34
2023/05/17 04:34:21;;;;;;;24.40;12.90;;;;;;;-128.00;-1.00;-1.00;18886;297;7504428;-37
2023/05/17 04:36:46;;;;;;;25.60;12.70;;;;;;;-128.00;-1.00;-1.00;18443;298;7507245;-37
2023/05/17 05:18:26;;;;;;;19.70;11.90;;;;;;;-100.82;19.20;19878.77;19571;297;8047432;-36
2023/05/17 05:20:52;;;;;;;38.30;14.10;;;;;;;-128.00;-1.00;-1.00;18521;298;7504943;-37
2023/05/17 05:23:18;;;;;;;17.90;11.40;;;;;;;-128.00;-1.00;-1.00;18880;297;7504465;-34
2023/05/17 05:25:44;;;;;;;19.90;10.50;;;;;;;-128.00;-1.00;-1.00;18848;296;7504725;-34
2023/05/17 05:28:10;;;;;;;18.70;11.30;;;;;;;-128.00;-1.00;-1.00;18876;288;7504989;-34
2023/05/17 05:30:37;;;;;;;21.70;11.30;;;;;;;-128.00;-1.00;-1.00;18866;288;7506438;-36
2023/05/17 05:33:03;;;;;;;23.30;9.00;;;;;;;-128.00;-1.00;-1.00;18879;288;7504167;-38
2023/05/17 05:35:29;;;;;;;32.40;12.10;;;;;;;-128.00;-1.00;-1.00;18495;288;7504285;-39
2023/05/17 05:37:56;;;;;;;24.50;10.40;;;;;;;-128.00;-1.00;-1.00;18474;296;7504425;-38
2023/05/17 05:40:21;;;;;;;17.50;9.00;;;;;;;-128.00;-1.00;-1.00;18487;296;7504561;-35
2023/05/17 05:42:47;;;;;;;12.70;7.80;;;;;;;-128.00;-1.00;-1.00;18501;288;7506049;-38
2023/05/17 05:45:12;;;;;;;16.30;9.10;;;;;;;-128.00;-1.00;-1.00;18509;303;7505261;-33
2023/05/17 05:47:39;;;;;;;19.00;10.50;;;;;;;-128.00;-1.00;-1.00;18878;297;7505187;-34
2023/05/17 05:50:06;;;;;;;13.80;10.00;;;;;;;-128.00;-1.00;-1.00;18890;288;7504785;-34
2023/05/17 05:52:32;;;;;;;12.20;8.00;;;;;;;-128.00;-1.00;-1.00;18468;341;7506436;-35
2023/05/17 05:54:58;;;;;;;12.40;9.40;;;;;;;-128.00;-1.00;-1.00;18472;348;7505518;-39
2023/05/17 05:57:23;;;;;;;12.00;8.70;;;;;;;-128.00;-1.00;-1.00;18480;288;7505402;-37
2023/05/17 05:59:49;;;;;;;18.10;9.80;;;;;;;-128.00;-1.00;-1.00;18486;288;7504712;-36
2023/05/17 06:02:16;;;;;;;13.10;8.00;;;;;;;-128.00;-1.00;-1.00;18457;297;7504976;-37
2023/05/17 06:04:42;;;;;;;19.70;8.90;;;;;;;-128.00;-1.00;-1.00;18484;296;7506080;-34
2023/05/17 06:07:07;;;;;;;11.20;9.70;;;;;;;-128.00;-1.00;-1.00;18476;348;7506077;-34
2023/05/17 06:09:34;;;;;;;16.70;7.40;;;;;;;-128.00;-1.00;-1.00;18873;348;7506794;-35
2023/05/17 06:12:00;;;;;;;15.40;10.30;;;;;;;-128.00;-1.00;-1.00;18869;296;7505070;-33
2023/05/17 06:14:26;;;;;;;15.40;10.30;;;;;;;-128.00;-1.00;-1.00;18877;296;7504941;-35
2023/05/17 06:16:52;;;;;;;14.80;8.70;;;;;;;-128.00;-1.00;-1.00;18914;288;7505693;-38
2023/05/17 06:19:19;;;;;;;10.70;9.20;;;;;;;-128.00;-1.00;-1.00;18874;285;7504653;-36
2023/05/17 06:21:44;;;;;;;10.60;8.30;;;;;;;-128.00;-1.00;-1.00;18457;285;7506902;-39
2023/05/17 06:24:10;;;;;;;14.70;7.80;;;;;;;-128.00;-1.00;-1.00;18479;285;7505153;-37
2023/05/17 06:26:36;;;;;;;13.80;12.30;;;;;;;-128.00;-1.00;-1.00;18483;348;7504418;-34
2023/05/17 06:29:02;;;;;;;10.80;7.10;;;;;;;-128.00;-1.00;-1.00;18463;285;7506353;-37
2023/05/17 06:31:28;;;;;;;8.30;7.40;;;;;;;-128.00;-1.00;-1.00;18467;289;7504681;-34
2023/05/17 06:33:54;;;;;;;7.50;6.30;;;;;;;-128.00;-1.00;-1.00;18463;298;7506392;-34
2023/05/17 06:36:20;;;;;;;12.30;9.70;;;;;;;-128.00;-1.00;-1.00;18477;289;7506317;-33
2023/05/17 06:38:46;;;;;;;12.00;9.80;;;;;;;-128.00;-1.00;-1.00;18875;289;7504641;-35
2023/05/17 06:41:12;;;;;;;11.70;6.30;;;;;;;-128.00;-1.00;-1.00;18877;296;7504781;-34
2023/05/17 06:43:38;;;;;;;7.70;6.40;;;;;;;-128.00;-1.00;-1.00;18860;296;7504937;-34
2023/05/17 06:46:05;;;;;;;9.80;6.80;;;;;;;-128.00;-1.00;-1.00;18896;289;7505643;-34
2023/05/17 06:48:31;;;;;;;14.00;7.60;;;;;;;-128.00;-1.00;-1.00;18862;349;7505331;-37
2023/05/17 06:50:57;;;;;;;11.10;7.60;;;;;;;-128.00;-1.00;-1.00;18864;290;7504373;-35
2023/05/17 06:53:23;;;;;;;11.80;7.80;;;;;;;-128.00;-1.00;-1.00;18886;349;7504608;-34
2023/05/17 06:55:50;;;;;;;8.80;7.30;;;;;;;-128.00;-1.00;-1.00;18867;298;7504582;-34
2023/05/17 06:58:16;;;;;;;11.40;5.60;;;;;;;-128.00;-1.00;-1.00;18884;285;7505108;-36
2023/05/17 07:00:42;;;;;;;8.80;6.60;;;;;;;-128.00;-1.00;-1.00;18888;297;7504138;-36
2023/05/17 07:03:08;;;;;;;11.30;5.60;;;;;;;-128.00;-1.00;-1.00;18903;296;7505084;-37
2023/05/17 07:05:35;;;;;;;24.50;5.50;;;;;;;-128.00;-1.00;-1.00;18480;285;7505815;-34
2023/05/17 07:08:00;;;;;;;9.80;4.80;;;;;;;-128.00;-1.00;-1.00;18475;285;7504663;-35
2023/05/17 07:10:26;;;;;;;10.20;4.80;;;;;;;-128.00;-1.00;-1.00;18463;309;7505028;-38
2023/05/17 07:12:52;;;;;;;12.50;4.90;;;;;;;-128.00;-1.00;-1.00;18876;349;7504653;-37
2023/05/17 07:15:19;;;;;;;9.40;3.50;;;;;;;-128.00;-1.00;-1.00;18892;296;7505788;-36
2023/05/17 07:17:45;;;;;;;13.60;3.60;;;;;;;-128.00;-1.00;-1.00;18846;303;7504888;-34
2023/05/17 07:20:11;;;;;;;8.70;3.70;;;;;;;-128.00;-1.00;-1.00;18878;296;7504431;-36
2023/05/17 07:22:38;;;;;;;5.60;4.30;;;;;;;-128.00;-1.00;-1.00;18860;310;7503959;-34
2023/05/17 07:25:05;;;;;;;9.60;3.50;;;;;;;-128.00;-1.00;-1.00;18486;319;7504612;-37
2023/05/17 07:27:31;;;;;;;7.80;3.30;;;;;;;-128.00;-1.00;-1.00;18461;285;7504403;-38
2023/05/17 07:29:56;;;;;;;3.60;3.30;;;;;;;-128.00;-1.00;-1.00;18485;301;7504425;-36
2023/05/17 07:32:22;;;;;;;5.70;4.90;;;;;;;-128.00;-1.00;-1.00;18468;296;7506079;-37
2023/05/17 07:34:48;;;;;;;4.10;2.70;;;;;;;-128.00;-1.00;-1.00;18481;296;7504442;-33
2023/05/17 07:37:14;;;;;;;10.00;3.70;;;;;;;-128.00;-1.00;-1.00;18839;298;7504305;-32
2023/05/17 07:39:40;;;;;;;4.90;3.30;;;;;;;-128.00;-1.00;-1.00;18868;304;7504461;-37
2023/05/17 07:42:06;;;;;;;4.90;4.10;;;;;;;-128.00;-1.00;-1.00;18874;296;7504783;-37
2023/05/17 07:44:32;;;;;;;5.70;3.10;;;;;;;-128.00;-1.00;-1.00;18865;296;7504248;-34
2023/05/17 07:46:59;;;;;;;5.20;3.40;;;;;;;-128.00;-1.00;-1.00;18881;296;7504473;-37
2023/05/17 07:49:26;;;;;;;6.20;3.20;;;;;;;-128.00;-1.00;-1.00;18902;313;7504432;-34
2023/05/17 07:51:51;;;;;;;3.30;2.30;;;;;;;-128.00;-1.00;-1.00;18441;338;7504620;-34
2023/05/17 07:54:25;;;;;;;3.80;2.50;;;;;;;-128.00;-1.00;-1.00;18460;308;7504318;-34
2023/05/17 07:56:53;;;;;;;5.70;2.50;;;;;;;-128.00;-1.00;-1.00;18485;296;7504816;-33
2023/05/17 07:59:20;;;;;;;4.70;2.30;;;;;;;-128.00;-1.00;-1.00;18465;296;7504734;-36
2023/05/17 08:01:46;;;;;;;9.80;2.40;;;;;;;-128.00;-1.00;-1.00;18463;285;7506752;-33
2023/05/17 08:04:13;;;;;;;12.50;2.30;;;;;;;-128.00;-1.00;-1.00;18485;289;7505768;-37
2023/05/17 08:06:41;;;;;;;3.60;2.20;;;;;;;-128.00;-1.00;-1.00;18476;288;7505552;-36
2023/05/17 08:09:07;;;;;;;3.40;1.80;;;;;;;-128.00;-1.00;-1.00;18489;296;7504584;-33
2023/05/17 08:11:33;;;;;;;5.60;2.70;;;;;;;-128.00;-1.00;-1.00;18483;298;7505762;-36
2023/05/17 08:14:02;;;;;;;3.20;1.90;;;;;;;-128.00;-1.00;-1.00;18453;340;7504048;-33
2023/05/17 08:16:28;;;;;;;3.50;1.50;;;;;;;-128.00;-1.00;-1.00;18468;289;7505279;-33
2023/05/17 08:18:54;;;;;;;3.70;1.90;;;;;;;-128.00;-1.00;-1.00;18447;309;7504542;-36
2023/05/17 08:21:21;;;;;;;3.90;1.80;;;;;;;-128.00;-1.00;-1.00;18495;296;7507477;-37
2023/05/17 08:23:47;;;;;;;3.40;1.60;;;;;;;-128.00;-1.00;-1.00;18474;296;7506088;-33
2023/05/17 08:26:13;;;;;;;6.50;2.20;;;;;;;-128.00;-1.00;-1.00;18884;298;7504656;-37
2023/05/17 08:28:39;;;;;;;2.80;1.80;;;;;;;-128.00;-1.00;-1.00;18440;298;7507070;-36
2023/05/17 08:31:06;;;;;;;5.20;1.90;;;;;;;-128.00;-1.00;-1.00;18875;285;7504912;-38
2023/05/17 08:33:32;;;;;;;5.60;2.00;;;;;;;-128.00;-1.00;-1.00;18489;289;7506150;-34
2023/05/17 08:36:00;;;;;;;5.60;1.40;;;;;;;-128.00;-1.00;-1.00;18480;349;7504596;-37
2023/05/17 08:38:25;;;;;;;7.70;2.10;;;;;;;-128.00;-1.00;-1.00;18442;285;7504212;-33
2023/05/17 08:40:53;;;;;;;8.50;1.90;;;;;;;-128.00;-1.00;-1.00;18485;296;7504703;-35
2023/05/17 08:43:20;;;;;;;4.10;1.80;;;;;;;-128.00;-1.00;-1.00;18474;349;7504806;-32
2023/05/17 08:45:46;;;;;;;4.20;1.70;;;;;;;-128.00;-1.00;-1.00;18482;296;7504987;-35
2023/05/17 08:48:11;;;;;;;3.80;1.10;;;;;;;-128.00;-1.00;-1.00;18467;305;7505783;-36
2023/05/17 08:50:37;;;;;;;5.60;1.60;;;;;;;-128.00;-1.00;-1.00;18866;297;7505102;-36
2023/05/17 08:53:04;;;;;;;4.30;1.50;;;;;;;-128.00;-1.00;-1.00;18875;289;7504560;-35
2023/05/17 08:55:31;;;;;;;8.50;1.70;;;;;;;-128.00;-1.00;-1.00;18892;296;7504952;-32
2023/05/17 08:57:57;;;;;;;5.10;1.80;;;;;;;-128.00;-1.00;-1.00;18489;289;7504602;-32
2023/05/17 09:00:23;;;;;;;3.20;1.30;;;;;;;-128.00;-1.00;-1.00;18478;296;7504878;-35
2023/05/17 09:02:49;;;;;;;2.20;0.90;;;;;;;-128.00;-1.00;-1.00;18469;317;7505996;-36
2023/05/17 09:05:16;;;;;;;4.90;2.10;;;;;;;-128.00;-1.00;-1.00;18868;296;7504287;-36
2023/05/17 09:07:42;;;;;;;4.20;1.40;;;;;;;-128.00;-1.00;-1.00;18456;299;7504130;-33
2023/05/17 09:10:08;;;;;;;4.20;1.60;;;;;;;-128.00;-1.00;-1.00;18479;285;7505364;-35
2023/05/17 09:12:34;;;;;;;2.50;1.10;;;;;;;-128.00;-1.00;-1.00;18476;297;7506057;-32
2023/05/17 09:15:13;;;;;;;4.50;1.60;;;;;;;-128.00;-1.00;-1.00;18864;285;7504888;-33
2023/05/17 09:17:40;;;;;;;4.60;2.20;;;;;;;-128.00;-1.00;-1.00;18486;285;7505122;-33
2023/05/17 09:20:07;;;;;;;3.00;2.50;;;;;;;-128.00;-1.00;-1.00;18496;296;7505588;-33
2023/05/17 09:22:34;;;;;;;2.70;1.70;;;;;;;-128.00;-1.00;-1.00;18445;296;7504450;-37
2023/05/17 09:25:03;;;;;;;6.40;1.80;;;;;;;-128.00;-1.00;-1.00;18457;342;7505997;-32
2023/05/17 09:27:32;;;;;;;7.30;1.90;;;;;;;-128.00;-1.00;-1.00;18472;296;7504701;-36
2023/05/17 09:29:57;;;;;;;3.20;1.20;;;;;;;-128.00;-1.00;-1.00;18461;297;7504821;-36
2023/05/17 09:32:23;;;;;;;12.00;2.00;;;;;;;-128.00;-1.00;-1.00;18841;298;7505019;-33
2023/05/17 09:34:50;;;;;;;8.20;2.20;;;;;;;-128.00;-1.00;-1.00;18867;296;7504404;-34
2023/05/17 09:37:18;;;;;;;5.70;2.80;;;;;;;-128.00;-1.00;-1.00;18857;298;7504784;-33
2023/05/17 09:39:44;;;;;;;3.00;1.60;;;;;;;-128.00;-1.00;-1.00;18460;298;7506635;-36
2023/05/17 09:42:11;;;;;;;4.90;2.30;;;;;;;-128.00;-1.00;-1.00;18469;296;7504924;-36
2023/05/17 09:44:52;;;;;;;4.60;2.30;;;;;;;-128.00;-1.00;-1.00;18474;285;7505741;-32
2023/05/17 09:47:25;;;;;;;7.50;2.20;;;;;;;-128.00;-1.00;-1.00;18466;296;7504517;-36
2023/05/17 09:49:51;;;;;;;3.10;1.70;;;;;;;-128.00;-1.00;-1.00;18491;296;7504834;-37
2023/05/17 09:52:18;;;;;;;2.40;1.70;;;;;;;-128.00;-1.00;-1.00;18463;309;7504638;-37
2023/05/17 09:54:51;;;;;;;7.00;2.10;;;;;;;-128.00;-1.00;-1.00;18456;296;7504488;-37
2023/05/17 09:57:17;;;;;;;11.70;2.20;;;;;;;-128.00;-1.00;-1.00;18480;308;7504411;-36
2023/05/17 09:59:43;;;;;;;3.50;1.90;;;;;;;-128.00;-1.00;-1.00;18487;296;7504716;-36
2023/05/17 10:02:09;;;;;;;8.60;2.10;;;;;;;-128.00;-1.00;-1.00;18500;289;7506720;-33
2023/05/17 10:04:36;;;;;;;5.50;1.60;;;;;;;-128.00;-1.00;-1.00;18473;296;7504285;-33
2023/05/17 10:07:02;;;;;;;3.20;2.20;;;;;;;-128.00;-1.00;-1.00;18466;296;7505394;-32
2023/05/17 10:09:33;;;;;;;2.90;1.60;;;;;;;-128.00;-1.00;-1.00;18448;285;7504321;-33
2023/05/17 10:11:59;;;;;;;5.10;1.70;;;;;;;-128.00;-1.00;-1.00;18467;349;7504678;-33
2023/05/17 10:14:27;;;;;;;7.60;2.00;;;;;;;-128.00;-1.00;-1.00;18925;289;7505297;-36
2023/05/17 10:16:53;;;;;;;3.00;1.60;;;;;;;-128.00;-1.00;-1.00;18442;298;7505269;-31
2023/05/17 10:19:21;;;;;;;9.10;1.90;;;;;;;-128.00;-1.00;-1.00;18453;285;7506210;-31
2023/05/17 10:21:48;;;;;;;11.40;1.80;;;;;;;-128.00;-1.00;-1.00;18467;296;7505225;-31
2023/05/17 10:24:14;;;;;;;9.00;2.80;;;;;;;-128.00;-1.00;-1.00;18462;348;7504811;-38
2023/05/17 10:26:40;;;;;;;2.90;1.90;;;;;;;-128.00;-1.00;-1.00;18470;307;7505762;-36
2023/05/17 10:29:05;;;;;;;4.40;1.80;;;;;;;-128.00;-1.00;-1.00;18470;296;7504553;-33
2023/05/17 10:31:32;;;;;;;3.10;1.80;;;;;;;-128.00;-1.00;-1.00;18868;298;7505923;-34
2023/05/17 10:34:00;;;;;;;4.10;2.40;;;;;;;-128.00;-1.00;-1.00;18486;338;7505252;-35
2023/05/17 10:36:25;;;;;;;6.00;2.00;;;;;;;-128.00;-1.00;-1.00;18462;289;7504852;-34
2023/05/17 10:38:51;;;;;;;13.80;3.10;;;;;;;-128.00;-1.00;-1.00;18465;285;7504145;-35
2023/05/17 10:41:20;;;;;;;5.50;2.20;;;;;;;-128.00;-1.00;-1.00;18918;297;7505544;-34
2023/05/17 10:43:46;;;;;;;11.40;1.80;;;;;;;-128.00;-1.00;-1.00;18488;285;7505949;-35
2023/05/17 10:46:14;;;;;;;1.70;1.10;;;;;;;-128.00;-1.00;-1.00;18452;289;7504432;-36
2023/05/17 10:48:40;;;;;;;5.00;0.70;;;;;;;-128.00;-1.00;-1.00;18462;298;7504737;-33
2023/05/17 10:51:06;;;;;;;6.60;2.90;;;;;;;-128.00;-1.00;-1.00;18466;285;7506192;-36
2023/05/17 10:53:32;;;;;;;10.50;1.90;;;;;;;-128.00;-1.00;-1.00;18477;289;7505062;-33
2023/05/17 10:55:58;;;;;;;14.30;1.90;;;;;;;-128.00;-1.00;-1.00;18478;296;7505982;-32
2023/05/17 11:04:38;;;;;;;3.50;2.00;;;;;;;;;;100865;300;542934;-32
2023/05/17 11:07:15;;;;;;;4.00;1.40;;;;;;;;;;101129;302;22583;-31
2023/05/17 11:50:06;;;;;;;7.80;2.70;;;;;;;-100.39;19.20;19930.00;19577;295;8045982;-31
2023/05/17 11:52:33;;;;;;;12.10;2.90;;;;;;;-128.00;-1.00;-1.00;18133;339;7506208;-38
2023/05/17 11:54:59;;;;;;;3.50;2.50;;;;;;;-128.00;-1.00;-1.00;18862;322;7504642;-34
2023/05/17 11:57:29;;;;;;;10.20;3.10;;;;;;;-128.00;-1.00;-1.00;18886;308;7505338;-36
2023/05/17 12:00:00;;;;;;;7.90;2.10;;;;;;;-128.00;-1.00;-1.00;18488;294;7506480;-33
2023/05/17 12:02:27;;;;;;;11.40;3.30;;;;;;;-128.00;-1.00;-1.00;18472;294;7506972;-32
2023/05/17 12:04:53;;;;;;;8.60;2.40;;;;;;;-128.00;-1.00;-1.00;18472;294;7504799;-32
2023/05/17 12:07:20;;;;;;;17.80;3.40;;;;;;;-128.00;-1.00;-1.00;18491;294;7504445;-36
2023/05/17 12:09:46;;;;;;;8.10;3.50;;;;;;;-128.00;-1.00;-1.00;18907;294;7504893;-36
2023/05/17 12:12:12;;;;;;;6.80;3.80;;;;;;;-128.00;-1.00;-1.00;18498;335;7504055;-33
2023/05/17 12:14:38;;;;;;;6.10;2.20;;;;;;;-128.00;-1.00;-1.00;18493;294;7504744;-33
2023/05/17 12:17:06;;;;;;;6.70;3.50;;;;;;;-128.00;-1.00;-1.00;18889;295;7506039;-36
2023/05/17 12:19:32;;;;;;;6.30;3.60;;;;;;;-128.00;-1.00;-1.00;18509;294;7504859;-37
2023/05/17 12:22:07;;;;;;;5.40;2.60;;;;;;;-128.00;-1.00;-1.00;18884;294;7504483;-33
2023/05/17 12:24:37;;;;;;;6.90;3.80;;;;;;;-128.00;-1.00;-1.00;18467;288;7504822;-37
2023/05/17 12:27:03;;;;;;;11.10;3.90;;;;;;;-128.00;-1.00;-1.00;18500;294;7504112;-32
2023/05/17 12:29:29;;;;;;;5.20;3.10;;;;;;;-128.00;-1.00;-1.00;18486;294;7505803;-34
2023/05/17 12:31:54;;;;;;;5.10;2.90;;;;;;;-128.00;-1.00;-1.00;18479;347;7504902;-35
2023/05/17 12:34:20;;;;;;;9.90;2.40;;;;;;;-128.00;-1.00;-1.00;18891;294;7505100;-36
2023/05/17 12:36:47;;;;;;;11.20;4.50;;;;;;;-128.00;-1.00;-1.00;18903;294;7504489;-32
2023/05/17 12:39:13;;;;;;;8.70;3.20;;;;;;;-128.00;-1.00;-1.00;18904;294;7504912;-32
2023/05/17 12:41:40;;;;;;;20.90;3.60;;;;;;;-128.00;-1.00;-1.00;18885;294;7504770;-34
2023/05/17 12:44:07;;;;;;;5.10;2.90;;;;;;;-128.00;-1.00;-1.00;18485;294;7504190;-35
2023/05/17 12:46:32;;;;;;;11.10;4.20;;;;;;;-128.00;-1.00;-1.00;18477;335;7506898;-35
2023/05/17 12:49:08;;;;;;;9.70;3.70;;;;;;;-128.00;-1.00;-1.00;18493;294;7505271;-36
2023/05/17 12:51:41;;;;;;;6.50;3.00;;;;;;;-128.00;-1.00;-1.00;18481;302;7504402;-37
2023/05/17 12:54:08;;;;;;;8.90;3.30;;;;;;;-128.00;-1.00;-1.00;18476;335;7504649;-32
2023/05/17 12:56:34;;;;;;;8.70;2.30;;;;;;;-128.00;-1.00;-1.00;18501;288;7504591;-35
2023/05/17 12:59:15;;;;;;;7.90;3.90;;;;;;;-128.00;-1.00;-1.00;18880;296;7504399;-36